createdAt,value
2023-01-23T00:02:05.584Z,43.38
2023-01-23T00:04:34.316Z,37.70
2023-01-23T00:07:04.603Z,39.33
2023-01-23T00:09:33.700Z,44.45
2023-01-23T00:12:02.674Z,39.10
2023-01-23T00:14:31.633Z,42.72
2023-01-23T00:17:02.122Z,40.10
2023-01-23T00:22:01.065Z,42.45
2023-01-23T00:24:30.101Z,35.88
2023-01-23T00:26:59.047Z,39.78
2023-01-23T00:29:27.996Z,32.92
2023-01-23T00:31:56.630Z,37.17
2023-01-23T00:34:27.045Z,42.80
2023-01-23T00:36:56.035Z,40.05
2023-01-23T00:39:25.666Z,36.22
2023-01-23T00:41:54.661Z,44.17
2023-01-23T00:44:23.849Z,40.35
2023-01-23T00:46:52.436Z,36.70
2023-01-23T00:49:24.457Z,37.80
2023-01-23T00:51:56.496Z,36.55
2023-01-23T00:54:26.071Z,41.38
2023-01-23T00:56:55.081Z,40.15
2023-01-23T00:59:24.727Z,34.45
2023-01-23T01:01:53.426Z,41.58
2023-01-23T01:04:22.489Z,35.60
2023-01-23T01:06:51.481Z,38.35
2023-01-23T01:09:22.887Z,39.30
2023-01-23T01:11:51.980Z,41.50
2023-01-23T01:14:20.929Z,37.20
2023-01-23T01:16:49.671Z,39.33
2023-01-23T01:19:19.274Z,46.38
2023-01-23T01:21:48.574Z,38.00
2023-01-23T01:24:17.512Z,37.50
2023-01-23T01:26:47.914Z,45.13
2023-01-23T01:29:17.076Z,48.03
2023-01-23T01:31:45.848Z,47.78
2023-01-23T01:34:15.105Z,41.63
2023-01-23T01:36:44.332Z,48.28
2023-01-23T01:39:13.300Z,46.33
2023-01-23T01:41:43.934Z,45.60
2023-01-23T01:44:17.613Z,54.38
2023-01-23T01:46:47.651Z,41.28
2023-01-23T01:49:20.081Z,41.22
2023-01-23T01:51:52.347Z,42.47
2023-01-23T01:54:25.038Z,39.97
2023-01-23T01:56:57.095Z,47.40
2023-01-23T01:59:29.868Z,52.97
2023-01-23T02:02:05.247Z,43.70
2023-01-23T02:04:36.425Z,49.15
2023-01-23T02:07:12.148Z,42.30
2023-01-23T02:09:41.524Z,43.88
2023-01-23T02:12:10.762Z,45.37
2023-01-23T02:14:43.661Z,45.42
2023-01-23T02:17:12.754Z,43.60
2023-01-23T02:19:46.784Z,51.75
2023-01-23T02:22:25.128Z,46.17
2023-01-23T02:25:03.287Z,46.75
2023-01-23T02:27:33.817Z,63.80
2023-01-23T02:30:06.221Z,52.92
2023-01-23T02:32:36.353Z,53.38
2023-01-23T02:37:36.579Z,52.05
2023-01-23T02:40:06.775Z,46.33
2023-01-23T02:42:40.859Z,52.75
2023-01-23T02:45:11.206Z,51.20
2023-01-23T02:47:40.220Z,52.10
2023-01-23T02:50:10.209Z,61.38
2023-01-23T02:52:38.822Z,53.67
2023-01-23T02:55:08.539Z,49.92
2023-01-23T02:57:39.034Z,47.10
2023-01-23T03:00:17.026Z,58.20
2023-01-23T03:02:47.117Z,55.38
2023-01-23T03:05:16.722Z,54.45
2023-01-23T03:07:46.071Z,54.55
2023-01-23T03:10:15.115Z,59.35
2023-01-23T03:12:48.488Z,51.72
2023-01-23T03:15:17.773Z,59.28
2023-01-23T03:17:48.281Z,57.83
2023-01-23T03:20:20.151Z,51.20
2023-01-23T03:22:48.920Z,52.88
2023-01-23T03:25:18.098Z,55.60
2023-01-23T03:27:48.613Z,65.70
2023-01-23T03:30:20.471Z,60.42
2023-01-23T03:32:50.433Z,68.50
2023-01-23T03:35:21.506Z,53.00
2023-01-23T03:37:53.463Z,60.33
2023-01-23T03:40:42.143Z,63.58
2023-01-23T03:43:14.591Z,54.22
2023-01-23T03:45:49.347Z,64.15
2023-01-23T03:48:18.482Z,58.95
2023-01-23T03:50:47.557Z,64.32
2023-01-23T03:53:16.557Z,60.63
2023-01-23T03:55:48.205Z,64.68
2023-01-23T03:58:19.415Z,61.03
2023-01-23T04:00:49.880Z,60.13
2023-01-23T04:05:49.181Z,66.18
2023-01-23T04:08:19.745Z,65.70
2023-01-23T04:10:49.329Z,57.25
2023-01-23T04:13:20.398Z,61.72
2023-01-23T04:15:49.686Z,63.08
2023-01-23T04:18:18.788Z,59.25
2023-01-23T04:20:47.838Z,74.03
2023-01-23T04:23:16.910Z,64.05
2023-01-23T04:25:45.558Z,57.80
2023-01-23T04:28:16.022Z,60.28
2023-01-23T04:30:47.772Z,60.25
2023-01-23T04:33:22.984Z,61.95
2023-01-23T04:35:54.285Z,41.58
2023-01-23T04:38:23.695Z,62.58
2023-01-23T04:40:53.407Z,61.58
2023-01-23T04:43:22.550Z,62.78
2023-01-23T04:45:56.640Z,53.97
2023-01-23T04:48:48.017Z,59.05
2023-01-23T04:51:19.132Z,60.80
2023-01-23T04:53:48.248Z,66.68
2023-01-23T04:56:17.296Z,64.72
2023-01-23T04:58:45.956Z,57.88
2023-01-23T05:01:24.750Z,50.97
2023-01-23T05:03:59.643Z,57.72
2023-01-23T05:06:29.274Z,59.75
2023-01-23T05:09:00.190Z,55.85
2023-01-23T05:11:37.577Z,64.50
2023-01-23T05:14:06.936Z,51.92
2023-01-23T05:16:37.600Z,54.42
2023-01-23T05:19:27.039Z,46.20
2023-01-23T05:21:57.037Z,61.47
2023-01-23T05:24:27.384Z,54.20
2023-01-23T05:26:58.800Z,60.10
2023-01-23T05:29:31.559Z,49.45
2023-01-23T05:32:09.963Z,53.63
2023-01-23T05:34:39.170Z,54.67
2023-01-23T05:37:26.001Z,48.20
2023-01-23T05:40:02.520Z,52.05
2023-01-23T05:42:51.975Z,47.80
2023-01-23T05:45:44.339Z,49.65
2023-01-23T05:48:24.526Z,45.58
2023-01-23T05:50:53.607Z,56.85
2023-01-23T05:53:23.627Z,44.60
2023-01-23T05:55:52.265Z,42.97
2023-01-23T06:01:00.204Z,43.55
2023-01-23T06:03:56.372Z,48.08
2023-01-23T06:06:35.676Z,43.28
2023-01-23T06:09:04.876Z,45.20
2023-01-23T06:11:34.564Z,45.65
2023-01-23T06:14:03.782Z,52.17
2023-01-23T06:16:32.476Z,53.45
2023-01-23T06:19:03.240Z,50.78
2023-01-23T06:21:34.926Z,46.58
2023-01-23T06:24:04.653Z,45.80
2023-01-23T06:26:33.757Z,45.03
2023-01-23T06:29:02.720Z,46.15
2023-01-23T06:31:32.753Z,45.80
2023-01-23T06:34:05.434Z,49.53
2023-01-23T06:36:41.801Z,45.28
2023-01-23T06:39:15.286Z,39.25
2023-01-23T06:41:45.075Z,52.38
2023-01-23T06:44:19.646Z,47.65
2023-01-23T06:46:48.518Z,50.08
2023-01-23T06:49:19.100Z,53.38
2023-01-23T06:51:49.158Z,47.63
2023-01-23T06:54:18.414Z,48.38
2023-01-23T06:56:49.421Z,48.15
2023-01-23T06:59:18.697Z,46.05
2023-01-23T07:01:48.312Z,45.00
2023-01-23T07:04:18.830Z,45.20
2023-01-23T07:06:50.717Z,53.95
2023-01-23T07:09:21.448Z,47.95
2023-01-23T07:12:06.727Z,43.08
2023-01-23T07:14:36.372Z,49.15
2023-01-23T07:17:05.596Z,60.97
2023-01-23T07:19:35.854Z,48.08
2023-01-23T07:22:08.818Z,47.97
2023-01-23T07:24:37.856Z,44.55
2023-01-23T07:27:07.238Z,49.92
2023-01-23T07:29:36.340Z,46.43
2023-01-23T07:32:05.757Z,46.30
2023-01-23T07:34:37.094Z,44.85
2023-01-23T07:37:06.283Z,45.67
2023-01-23T07:39:35.313Z,42.17
2023-01-23T07:42:04.368Z,42.58
2023-01-23T07:44:33.638Z,50.67
2023-01-23T07:47:02.808Z,42.00
2023-01-23T07:49:31.454Z,50.05
2023-01-23T07:52:02.021Z,57.63
2023-01-23T07:54:31.417Z,48.58
2023-01-23T07:57:00.520Z,41.38
2023-01-23T07:59:29.673Z,46.38
2023-01-23T08:01:58.711Z,45.05
2023-01-23T08:04:28.113Z,48.45
2023-01-23T08:06:57.293Z,41.05
2023-01-23T08:09:27.854Z,46.95
2023-01-23T08:11:56.912Z,51.20
2023-01-23T08:14:26.137Z,42.10
2023-01-23T08:16:55.253Z,43.10
2023-01-23T08:19:25.471Z,48.87
2023-01-23T08:21:54.820Z,44.35
2023-01-23T08:24:23.886Z,46.47
2023-01-23T08:26:54.350Z,41.25
2023-01-23T08:29:23.559Z,46.60
2023-01-23T08:31:55.046Z,48.55
2023-01-23T08:34:24.418Z,42.75
2023-01-23T08:36:53.606Z,42.80
2023-01-23T08:39:22.588Z,42.00
2023-01-23T08:41:51.737Z,38.88
2023-01-23T08:44:22.327Z,45.75
2023-01-23T08:46:50.984Z,39.13
2023-01-23T08:49:20.521Z,48.05
2023-01-23T08:51:49.659Z,41.47
2023-01-23T08:54:18.736Z,43.58
2023-01-23T08:56:47.853Z,45.25
2023-01-23T08:59:16.842Z,43.42
2023-01-23T09:01:48.182Z,40.45
2023-01-23T09:04:17.674Z,39.28
2023-01-23T09:06:46.779Z,45.10
2023-01-23T09:09:15.877Z,47.72
2023-01-23T09:11:46.828Z,39.33
2023-01-23T09:14:16.492Z,44.35
2023-01-23T09:16:46.620Z,49.60
2023-01-23T09:19:16.042Z,46.65
2023-01-23T09:21:46.339Z,38.37
2023-01-23T09:26:44.158Z,44.85
2023-01-23T09:29:13.303Z,45.65
2023-01-23T09:31:42.496Z,43.95
2023-01-23T09:34:13.326Z,43.38
2023-01-23T09:36:43.676Z,42.05
2023-01-23T09:39:13.183Z,40.78
2023-01-23T09:41:42.927Z,46.63
2023-01-23T09:44:15.681Z,47.88
2023-01-23T09:46:47.945Z,41.15
2023-01-23T09:49:24.109Z,46.17
2023-01-23T09:51:57.195Z,46.83
2023-01-23T09:54:35.150Z,46.20
2023-01-23T09:57:08.081Z,43.83
2023-01-23T09:59:53.658Z,50.97
2023-01-23T10:02:26.744Z,47.75
2023-01-23T10:04:59.373Z,51.85
2023-01-23T10:07:42.613Z,47.75
2023-01-23T10:10:44.369Z,44.40
2023-01-23T10:13:17.440Z,47.03
2023-01-23T10:16:04.208Z,45.72
2023-01-23T10:18:37.156Z,45.60
2023-01-23T10:21:14.581Z,49.10
2023-01-23T10:23:53.159Z,43.55
2023-01-23T10:26:24.089Z,46.40
2023-01-23T10:28:54.971Z,46.38
2023-01-23T10:31:35.414Z,52.10
2023-01-23T10:34:12.240Z,41.78
2023-01-23T10:36:54.761Z,49.50
2023-01-23T10:39:28.758Z,46.17
2023-01-23T10:42:02.487Z,49.05
2023-01-23T10:44:32.038Z,49.78
2023-01-23T10:47:03.875Z,53.40
2023-01-23T10:49:35.325Z,52.60
2023-01-23T10:52:06.450Z,46.97
2023-01-23T10:54:47.282Z,49.25
2023-01-23T10:57:24.164Z,40.83
2023-01-23T10:59:56.866Z,45.60
2023-01-23T11:02:29.679Z,45.45
2023-01-23T11:04:59.326Z,50.75
2023-01-23T11:07:31.482Z,52.40
2023-01-23T11:10:02.168Z,50.28
2023-01-23T11:12:32.337Z,46.78
2023-01-23T11:18:00.059Z,49.40
2023-01-23T11:20:31.120Z,47.42
2023-01-23T11:23:07.229Z,51.13
2023-01-23T11:25:38.338Z,48.22
2023-01-23T11:28:23.826Z,48.60
2023-01-23T11:31:03.779Z,43.97
2023-01-23T11:33:44.473Z,49.35
2023-01-23T11:36:33.287Z,48.22
2023-01-23T11:39:13.428Z,47.17
2023-01-23T11:41:42.552Z,43.47
2023-01-23T11:44:18.587Z,40.53
2023-01-23T11:47:02.983Z,40.25
2023-01-23T11:49:54.715Z,36.35
2023-01-23T11:52:31.980Z,40.28
2023-01-23T11:55:29.548Z,42.03
2023-01-23T11:58:09.790Z,45.42
2023-01-23T12:03:38.049Z,31.90
2023-01-23T12:06:24.736Z,52.08
2023-01-23T12:09:00.505Z,57.05
2023-01-23T12:11:34.985Z,58.95
2023-01-23T12:14:06.344Z,56.70
2023-01-23T12:16:48.279Z,58.25
2023-01-23T12:19:27.532Z,53.50
2023-01-23T12:22:02.233Z,53.42
2023-01-23T12:24:42.050Z,58.55
2023-01-23T12:27:19.340Z,61.83
2023-01-23T12:30:13.621Z,57.28
2023-01-23T12:32:52.740Z,48.13
2023-01-23T12:35:32.039Z,52.58
2023-01-23T12:38:14.346Z,53.47
2023-01-23T12:40:46.452Z,50.38
2023-01-23T12:43:19.658Z,46.90
2023-01-23T12:45:52.634Z,52.10
2023-01-23T12:48:28.256Z,55.08
2023-01-23T12:50:59.745Z,56.55
2023-01-23T12:53:30.600Z,56.05
2023-01-23T12:56:03.253Z,48.83
2023-01-23T12:58:36.440Z,57.22
2023-01-23T13:01:27.415Z,56.00
2023-01-23T13:04:20.159Z,51.22
2023-01-23T13:07:09.310Z,55.63
2023-01-23T13:09:49.516Z,52.25
2023-01-23T13:12:22.883Z,57.40
2023-01-23T13:15:12.982Z,55.50
2023-01-23T13:17:46.001Z,55.60
2023-01-23T13:20:46.199Z,52.05
2023-01-23T13:23:28.245Z,58.35
2023-01-23T13:26:29.071Z,55.15
2023-01-23T13:29:04.184Z,55.35
2023-01-23T13:31:45.455Z,60.15
2023-01-23T13:34:36.176Z,56.45
2023-01-23T13:37:33.639Z,56.90
2023-01-23T13:40:16.603Z,53.15
2023-01-23T13:42:48.694Z,55.65
2023-01-23T13:45:31.722Z,46.22
2023-01-23T14:20:43.733Z,45.05
2023-01-23T14:23:29.175Z,45.35
2023-01-23T14:26:00.419Z,41.65
2023-01-23T14:28:33.581Z,41.78
2023-01-23T14:31:07.901Z,37.38
2023-01-23T14:34:01.924Z,38.17
2023-01-23T14:37:04.270Z,41.17
2023-01-23T14:39:52.841Z,37.75
2023-01-23T14:43:14.840Z,38.33
2023-01-23T14:45:56.346Z,46.95
2023-01-23T14:48:35.599Z,40.72
2023-01-23T14:51:20.613Z,39.90
2023-01-23T14:54:23.229Z,44.22
2023-01-23T14:57:04.741Z,41.13
2023-01-23T15:00:27.361Z,44.08
2023-01-23T15:03:00.135Z,45.10
2023-01-23T15:05:40.050Z,47.50
2023-01-23T15:08:29.008Z,45.92
2023-01-23T15:11:14.237Z,40.28
2023-01-23T15:14:05.121Z,46.00
2023-01-23T15:16:44.615Z,41.08
2023-01-23T15:19:30.672Z,40.97
2023-01-23T15:22:30.908Z,38.70
2023-01-23T15:25:27.083Z,43.72
2023-01-23T15:27:57.679Z,42.80
2023-01-23T15:30:47.092Z,41.92
2023-01-23T15:33:26.872Z,42.37
2023-01-23T15:36:03.952Z,44.55
2023-01-23T15:38:34.200Z,41.10
2023-01-23T15:43:39.078Z,48.75
2023-01-23T15:46:11.657Z,46.85
2023-01-23T15:48:40.922Z,49.47
2023-01-23T15:51:12.783Z,44.75
2023-01-23T15:53:42.008Z,45.97
2023-01-23T15:56:24.699Z,49.10
2023-01-23T15:58:54.890Z,45.60
2023-01-23T16:01:24.123Z,49.80
2023-01-23T16:03:53.293Z,46.60
2023-01-23T16:06:23.715Z,46.08
2023-01-23T16:11:37.560Z,52.50
2023-01-23T16:14:10.684Z,48.17
2023-01-23T16:16:40.179Z,47.85
2023-01-23T16:19:09.394Z,61.20
2023-01-23T16:21:38.543Z,40.30
2023-01-23T16:24:08.285Z,51.15
2023-01-23T16:26:44.065Z,56.47
2023-01-23T16:29:26.497Z,47.38
2023-01-23T16:31:56.095Z,51.05
2023-01-23T16:34:25.303Z,45.03
2023-01-23T16:36:55.934Z,45.60
2023-01-23T16:39:27.138Z,47.13
2023-01-23T16:41:56.152Z,52.85
2023-01-23T16:44:28.065Z,47.65
2023-01-23T16:46:56.799Z,50.65
2023-01-23T16:49:26.839Z,42.28
2023-01-23T16:51:59.112Z,45.80
2023-01-23T16:54:28.711Z,40.30
2023-01-23T16:56:59.357Z,48.77
2023-01-23T16:59:33.001Z,54.80
2023-01-23T17:02:02.724Z,47.22
2023-01-23T17:04:32.381Z,49.08
2023-01-23T17:07:01.487Z,47.85
2023-01-23T17:09:30.574Z,49.17
2023-01-23T17:11:59.861Z,49.90
2023-01-23T17:14:32.106Z,49.88
2023-01-23T17:17:06.236Z,47.60
2023-01-23T17:19:39.939Z,46.72
2023-01-23T17:22:14.382Z,50.92
2023-01-23T17:24:43.445Z,52.92
2023-01-23T17:27:12.669Z,49.67
2023-01-23T17:29:43.293Z,48.83
2023-01-23T17:32:21.344Z,48.53
2023-01-23T17:34:50.568Z,47.83
2023-01-23T17:37:21.890Z,51.78
2023-01-23T17:39:51.254Z,48.60
2023-01-23T17:42:22.004Z,51.80
2023-01-23T17:44:52.644Z,48.78
2023-01-23T17:47:22.031Z,56.58
2023-01-23T17:49:54.819Z,55.88
2023-01-23T17:52:25.042Z,52.60
2023-01-23T17:57:24.048Z,52.90
2023-01-23T17:59:56.452Z,59.65
2023-01-23T18:02:28.817Z,52.42
2023-01-23T18:04:59.883Z,60.67
2023-01-23T18:09:57.788Z,50.58
2023-01-23T18:12:31.254Z,53.13
2023-01-23T18:15:08.465Z,53.63
2023-01-23T18:17:44.668Z,54.25
2023-01-23T18:20:19.255Z,61.05
2023-01-23T18:22:48.792Z,60.65
2023-01-23T18:25:20.053Z,59.20
2023-01-23T18:27:54.362Z,57.08
2023-01-23T18:30:38.867Z,61.65
2023-01-23T18:33:37.588Z,64.25
2023-01-23T18:36:31.190Z,64.68
2023-01-23T18:39:22.180Z,58.50
2023-01-23T18:42:02.224Z,58.70
2023-01-23T18:44:34.833Z,59.30
2023-01-23T18:47:09.719Z,63.47
2023-01-23T18:49:39.334Z,61.78
2023-01-23T18:52:11.267Z,57.42
2023-01-23T18:54:44.524Z,59.63
2023-01-23T18:57:24.520Z,58.13
2023-01-23T18:59:58.116Z,56.42
2023-01-23T19:02:34.259Z,58.10
2023-01-23T19:05:21.182Z,53.92
2023-01-23T19:07:50.989Z,60.05
2023-01-23T19:10:22.089Z,60.85
2023-01-23T19:13:01.076Z,52.83
2023-01-23T19:15:31.666Z,60.63
2023-01-23T19:18:11.088Z,59.40
2023-01-23T19:20:45.552Z,64.68
2023-01-23T19:23:25.603Z,61.65
2023-01-23T19:25:54.599Z,63.22
2023-01-23T19:28:24.220Z,67.13
2023-01-23T19:30:54.295Z,68.22
2023-01-23T19:33:24.810Z,80.78
2023-01-23T19:35:56.748Z,75.63
2023-01-23T19:38:25.980Z,72.45
2023-01-23T19:40:54.894Z,74.53
2023-01-23T19:43:23.928Z,69.88
2023-01-23T19:45:52.952Z,74.03
2023-01-23T19:48:22.152Z,67.13
2023-01-23T19:50:52.784Z,66.45
2023-01-23T19:53:22.354Z,68.60
2023-01-23T19:55:51.156Z,62.30
2023-01-23T19:58:21.345Z,59.22
2023-01-23T20:03:19.459Z,65.00
2023-01-23T20:05:49.826Z,62.08
2023-01-23T20:10:49.174Z,64.03
2023-01-23T20:13:18.380Z,58.38
2023-01-23T20:15:47.529Z,66.65
2023-01-23T20:18:16.659Z,61.17
2023-01-23T20:20:45.677Z,71.47
2023-01-23T20:23:14.783Z,65.22
2023-01-23T20:25:45.282Z,70.50
2023-01-23T20:28:14.338Z,71.38
2023-01-23T20:30:43.563Z,75.60
2023-01-23T20:33:13.194Z,60.45
2023-01-23T20:35:42.239Z,67.37
2023-01-23T20:38:11.347Z,65.53
2023-01-23T20:40:40.128Z,70.32
2023-01-23T20:43:10.753Z,70.15
2023-01-23T20:45:47.003Z,63.53
2023-01-23T20:48:16.449Z,76.82
2023-01-23T20:50:45.779Z,73.67
2023-01-23T20:53:34.943Z,80.10
2023-01-23T20:56:06.197Z,80.22
2023-01-23T20:58:55.713Z,76.93
2023-01-23T21:01:28.311Z,68.40
2023-01-23T21:03:57.860Z,73.70
2023-01-23T21:06:27.030Z,71.67
2023-01-23T21:08:58.266Z,72.38
2023-01-23T21:11:27.605Z,88.68
2023-01-23T21:13:58.242Z,78.88
2023-01-23T21:16:27.266Z,87.78
2023-01-23T21:18:56.505Z,78.32
2023-01-23T21:21:25.765Z,69.13
2023-01-23T21:23:55.186Z,91.18
2023-01-23T21:26:26.174Z,85.47
2023-01-23T21:28:55.851Z,86.30
2023-01-23T21:31:28.498Z,79.93
2023-01-23T21:34:00.254Z,76.28
2023-01-23T21:36:30.162Z,89.28
2023-01-23T21:38:59.466Z,66.00
2023-01-23T21:41:28.638Z,77.15
2023-01-23T21:43:57.534Z,82.72
2023-01-23T21:46:28.013Z,83.10
2023-01-23T21:48:57.362Z,88.53
2023-01-23T21:51:27.860Z,87.82
2023-01-23T21:53:57.234Z,86.18
2023-01-23T21:56:26.759Z,81.57
2023-01-23T21:58:55.545Z,91.38
2023-01-23T22:01:35.855Z,77.05
2023-01-23T22:04:09.237Z,88.05
2023-01-23T22:06:39.368Z,86.22
2023-01-23T22:11:37.859Z,79.35
2023-01-23T22:14:07.185Z,78.43
2023-01-23T22:16:47.980Z,82.50
2023-01-23T22:19:24.262Z,90.35
2023-01-23T22:21:54.746Z,78.70
2023-01-23T22:24:23.970Z,86.93
2023-01-23T22:26:53.145Z,86.18
2023-01-23T22:29:23.017Z,86.40
2023-01-23T22:31:52.553Z,85.43
2023-01-23T22:34:23.164Z,96.55
2023-01-23T22:36:52.260Z,85.15
2023-01-23T22:39:21.302Z,91.63
2023-01-23T22:41:51.357Z,83.60
2023-01-23T22:44:20.454Z,93.50
2023-01-23T22:46:51.602Z,84.57
2023-01-23T22:49:22.453Z,79.45
2023-01-23T22:51:52.151Z,87.68
2023-01-23T22:54:21.251Z,87.53
2023-01-23T22:56:50.363Z,90.82
2023-01-23T22:59:19.372Z,83.32
2023-01-23T23:01:47.966Z,83.95
2023-01-23T23:04:16.968Z,82.25
2023-01-23T23:09:17.416Z,85.90
2023-01-23T23:11:49.085Z,84.85
2023-01-23T23:14:18.133Z,80.75
2023-01-23T23:16:46.859Z,80.32
2023-01-23T23:19:15.982Z,83.88
2023-01-23T23:21:44.985Z,82.78
2023-01-23T23:24:15.548Z,83.00
2023-01-23T23:26:44.707Z,81.75
2023-01-23T23:29:13.733Z,84.72
2023-01-23T23:31:42.967Z,84.22
2023-01-23T23:34:12.256Z,83.13
2023-01-23T23:36:41.393Z,87.70
2023-01-23T23:39:10.757Z,82.20
2023-01-23T23:41:41.372Z,92.75
2023-01-23T23:44:10.610Z,89.10
2023-01-23T23:46:39.716Z,86.45
2023-01-23T23:49:10.196Z,85.00
2023-01-23T23:51:39.439Z,73.57
2023-01-23T23:54:08.728Z,86.00
2023-01-23T23:56:37.976Z,81.00
2023-01-23T23:59:08.681Z,77.90
